sensor_id;sensor_type;location;lat;lon;timestamp;P1;durP1;ratioP1;P2;durP2;ratioP2
82399;SDS011;72039;48.812;8.198;2023-12-20T00:01:16;6.32;;;3.78;;
82399;SDS011;72039;48.812;8.198;2023-12-20T00:03:43;5.13;;;3.78;;
82399;SDS011;72039;48.812;8.198;2023-12-20T00:06:08;5.75;;;3.67;;
82399;SDS011;72039;48.812;8.198;2023-12-20T00:08:34;6.18;;;3.58;;
82399;SDS011;72039;48.812;8.198;2023-12-20T00:11:04;6.05;;;3.38;;
82399;SDS011;72039;48.812;8.198;2023-12-20T00:13:34;6.32;;;3.38;;
82399;SDS011;72039;48.812;8.198;2023-12-20T00:16:01;4.50;;;3.15;;
82399;SDS011;72039;48.812;8.198;2023-12-20T00:18:26;6.28;;;3.67;;
82399;SDS011;72039;48.812;8.198;2023-12-20T00:20:51;4.72;;;3.40;;
82399;SDS011;72039;48.812;8.198;2023-12-20T00:23:17;5.20;;;3.90;;
82399;SDS011;72039;48.812;8.198;2023-12-20T00:25:42;7.97;;;4.32;;
82399;SDS011;72039;48.812;8.198;2023-12-20T00:28:10;7.50;;;3.88;;
82399;SDS011;72039;48.812;8.198;2023-12-20T00:30:35;5.50;;;3.72;;
82399;SDS011;72039;48.812;8.198;2023-12-20T00:33:01;5.60;;;3.60;;
82399;SDS011;72039;48.812;8.198;2023-12-20T00:35:29;5.10;;;3.63;;
82399;SDS011;72039;48.812;8.198;2023-12-20T00:37:54;6.40;;;4.10;;
82399;SDS011;72039;48.812;8.198;2023-12-20T00:40:20;5.93;;;3.92;;
82399;SDS011;72039;48.812;8.198;2023-12-20T00:42:45;5.93;;;4.32;;
82399;SDS011;72039;48.812;8.198;2023-12-20T00:45:13;6.63;;;4.30;;
82399;SDS011;72039;48.812;8.198;2023-12-20T00:47:39;4.78;;;3.65;;
82399;SDS011;72039;48.812;8.198;2023-12-20T00:50:05;6.90;;;4.05;;
82399;SDS011;72039;48.812;8.198;2023-12-20T00:52:31;6.00;;;4.28;;
82399;SDS011;72039;48.812;8.198;2023-12-20T00:55:01;6.00;;;3.80;;
82399;SDS011;72039;48.812;8.198;2023-12-20T00:57:29;5.22;;;3.80;;
82399;SDS011;72039;48.812;8.198;2023-12-20T00:59:54;7.35;;;4.28;;
82399;SDS011;72039;48.812;8.198;2023-12-20T01:02:20;7.95;;;4.15;;
82399;SDS011;72039;48.812;8.198;2023-12-20T01:04:45;6.07;;;4.13;;
82399;SDS011;72039;48.812;8.198;2023-12-20T01:07:10;5.53;;;3.42;;
82399;SDS011;72039;48.812;8.198;2023-12-20T01:09:36;6.70;;;3.60;;
82399;SDS011;72039;48.812;8.198;2023-12-20T01:12:01;6.38;;;3.97;;
82399;SDS011;72039;48.812;8.198;2023-12-20T01:14:26;5.40;;;3.53;;
82399;SDS011;72039;48.812;8.198;2023-12-20T01:16:52;6.18;;;3.58;;
82399;SDS011;72039;48.812;8.198;2023-12-20T01:19:17;6.38;;;3.83;;
82399;SDS011;72039;48.812;8.198;2023-12-20T01:21:46;5.95;;;4.18;;
82399;SDS011;72039;48.812;8.198;2023-12-20T01:24:12;4.68;;;3.55;;
82399;SDS011;72039;48.812;8.198;2023-12-20T01:26:39;5.20;;;3.97;;
82399;SDS011;72039;48.812;8.198;2023-12-20T01:29:07;6.78;;;3.83;;
82399;SDS011;72039;48.812;8.198;2023-12-20T01:31:35;4.88;;;3.13;;
82399;SDS011;72039;48.812;8.198;2023-12-20T01:34:00;4.75;;;3.33;;
82399;SDS011;72039;48.812;8.198;2023-12-20T01:36:25;5.22;;;3.17;;
82399;SDS011;72039;48.812;8.198;2023-12-20T01:38:53;4.57;;;3.33;;
82399;SDS011;72039;48.812;8.198;2023-12-20T01:41:18;5.97;;;3.45;;
82399;SDS011;72039;48.812;8.198;2023-12-20T01:43:44;7.82;;;3.80;;
82399;SDS011;72039;48.812;8.198;2023-12-20T01:46:10;4.13;;;3.08;;
82399;SDS011;72039;48.812;8.198;2023-12-20T01:48:36;5.88;;;3.60;;
82399;SDS011;72039;48.812;8.198;2023-12-20T01:51:01;5.03;;;3.72;;
82399;SDS011;72039;48.812;8.198;2023-12-20T01:53:27;5.43;;;3.33;;
82399;SDS011;72039;48.812;8.198;2023-12-20T01:55:56;5.57;;;3.45;;
82399;SDS011;72039;48.812;8.198;2023-12-20T01:58:30;5.90;;;3.40;;
82399;SDS011;72039;48.812;8.198;2023-12-20T02:00:56;5.03;;;3.65;;
82399;SDS011;72039;48.812;8.198;2023-12-20T02:03:23;6.68;;;4.00;;
82399;SDS011;72039;48.812;8.198;2023-12-20T02:05:51;5.53;;;3.55;;
82399;SDS011;72039;48.812;8.198;2023-12-20T02:08:16;4.60;;;2.85;;
82399;SDS011;72039;48.812;8.198;2023-12-20T02:10:42;3.92;;;3.17;;
82399;SDS011;72039;48.812;8.198;2023-12-20T02:13:07;5.80;;;3.75;;
82399;SDS011;72039;48.812;8.198;2023-12-20T02:15:34;6.40;;;3.50;;
82399;SDS011;72039;48.812;8.198;2023-12-20T02:18:01;6.00;;;3.60;;
82399;SDS011;72039;48.812;8.198;2023-12-20T02:20:27;6.10;;;3.67;;
82399;SDS011;72039;48.812;8.198;2023-12-20T02:22:53;4.20;;;3.50;;
82399;SDS011;72039;48.812;8.198;2023-12-20T02:25:20;5.05;;;3.38;;
82399;SDS011;72039;48.812;8.198;2023-12-20T02:27:46;5.20;;;3.63;;
82399;SDS011;72039;48.812;8.198;2023-12-20T02:30:11;5.70;;;3.70;;
82399;SDS011;72039;48.812;8.198;2023-12-20T02:32:39;3.97;;;3.42;;
82399;SDS011;72039;48.812;8.198;2023-12-20T02:35:05;5.20;;;2.55;;
82399;SDS011;72039;48.812;8.198;2023-12-20T02:37:30;5.18;;;3.30;;
82399;SDS011;72039;48.812;8.198;2023-12-20T02:40:02;6.05;;;3.33;;
82399;SDS011;72039;48.812;8.198;2023-12-20T02:42:29;6.70;;;3.28;;
82399;SDS011;72039;48.812;8.198;2023-12-20T02:44:55;5.25;;;3.42;;
82399;SDS011;72039;48.812;8.198;2023-12-20T02:47:20;4.30;;;3.08;;
82399;SDS011;72039;48.812;8.198;2023-12-20T02:49:45;3.90;;;3.30;;
82399;SDS011;72039;48.812;8.198;2023-12-20T02:52:14;6.05;;;3.38;;
82399;SDS011;72039;48.812;8.198;2023-12-20T02:54:39;5.50;;;3.38;;
82399;SDS011;72039;48.812;8.198;2023-12-20T02:57:04;5.70;;;3.28;;
82399;SDS011;72039;48.812;8.198;2023-12-20T02:59:30;3.72;;;2.75;;
82399;SDS011;72039;48.812;8.198;2023-12-20T03:01:55;5.80;;;3.67;;
82399;SDS011;72039;48.812;8.198;2023-12-20T03:04:23;7.03;;;3.47;;
82399;SDS011;72039;48.812;8.198;2023-12-20T03:06:49;6.65;;;3.42;;
82399;SDS011;72039;48.812;8.198;2023-12-20T03:09:16;3.92;;;3.08;;
82399;SDS011;72039;48.812;8.198;2023-12-20T03:11:42;4.82;;;3.28;;
82399;SDS011;72039;48.812;8.198;2023-12-20T03:14:09;6.53;;;3.42;;
82399;SDS011;72039;48.812;8.198;2023-12-20T03:16:37;9.65;;;3.15;;
82399;SDS011;72039;48.812;8.198;2023-12-20T03:19:02;3.72;;;2.70;;
82399;SDS011;72039;48.812;8.198;2023-12-20T03:21:28;5.28;;;3.17;;
82399;SDS011;72039;48.812;8.198;2023-12-20T03:23:54;6.80;;;3.00;;
82399;SDS011;72039;48.812;8.198;2023-12-20T03:26:19;5.47;;;3.67;;
82399;SDS011;72039;48.812;8.198;2023-12-20T03:28:44;4.72;;;3.20;;
82399;SDS011;72039;48.812;8.198;2023-12-20T03:31:10;4.65;;;3.15;;
82399;SDS011;72039;48.812;8.198;2023-12-20T03:33:38;5.05;;;2.95;;
82399;SDS011;72039;48.812;8.198;2023-12-20T03:36:03;3.92;;;2.65;;
82399;SDS011;72039;48.812;8.198;2023-12-20T03:38:29;3.90;;;3.00;;
82399;SDS011;72039;48.812;8.198;2023-12-20T03:40:54;3.72;;;2.90;;
82399;SDS011;72039;48.812;8.198;2023-12-20T03:43:20;3.67;;;2.67;;
82399;SDS011;72039;48.812;8.198;2023-12-20T03:45:47;4.57;;;2.92;;
82399;SDS011;72039;48.812;8.198;2023-12-20T03:48:13;4.38;;;2.97;;
82399;SDS011;72039;48.812;8.198;2023-12-20T03:50:38;5.15;;;3.08;;
82399;SDS011;72039;48.812;8.198;2023-12-20T03:53:06;4.80;;;2.70;;
82399;SDS011;72039;48.812;8.198;2023-12-20T03:55:31;3.22;;;2.53;;
82399;SDS011;72039;48.812;8.198;2023-12-20T03:57:56;6.50;;;2.85;;
82399;SDS011;72039;48.812;8.198;2023-12-20T04:00:22;3.78;;;2.88;;
82399;SDS011;72039;48.812;8.198;2023-12-20T04:02:49;4.57;;;2.92;;
82399;SDS011;72039;48.812;8.198;2023-12-20T04:05:17;4.78;;;2.80;;
82399;SDS011;72039;48.812;8.198;2023-12-20T04:07:47;5.53;;;2.78;;
82399;SDS011;72039;48.812;8.198;2023-12-20T04:10:15;5.28;;;2.80;;
82399;SDS011;72039;48.812;8.198;2023-12-20T04:12:41;4.10;;;3.05;;
82399;SDS011;72039;48.812;8.198;2023-12-20T04:15:06;3.90;;;3.03;;
82399;SDS011;72039;48.812;8.198;2023-12-20T04:17:35;5.53;;;2.85;;
82399;SDS011;72039;48.812;8.198;2023-12-20T04:20:01;6.80;;;2.97;;
82399;SDS011;72039;48.812;8.198;2023-12-20T04:22:27;3.55;;;2.65;;
82399;SDS011;72039;48.812;8.198;2023-12-20T04:24:57;3.80;;;2.90;;
82399;SDS011;72039;48.812;8.198;2023-12-20T04:27:27;4.78;;;3.00;;
82399;SDS011;72039;48.812;8.198;2023-12-20T04:29:54;5.03;;;2.72;;
82399;SDS011;72039;48.812;8.198;2023-12-20T04:32:20;5.68;;;3.00;;
82399;SDS011;72039;48.812;8.198;2023-12-20T04:34:45;4.28;;;2.78;;
82399;SDS011;72039;48.812;8.198;2023-12-20T04:37:11;4.95;;;3.60;;
82399;SDS011;72039;48.812;8.198;2023-12-20T04:39:37;4.47;;;3.15;;
82399;SDS011;72039;48.812;8.198;2023-12-20T04:42:07;5.20;;;3.42;;
82399;SDS011;72039;48.812;8.198;2023-12-20T04:44:32;5.32;;;3.30;;
82399;SDS011;72039;48.812;8.198;2023-12-20T04:46:58;6.70;;;3.70;;
82399;SDS011;72039;48.812;8.198;2023-12-20T04:49:23;7.43;;;4.05;;
82399;SDS011;72039;48.812;8.198;2023-12-20T04:51:48;5.28;;;3.28;;
82399;SDS011;72039;48.812;8.198;2023-12-20T04:54:14;4.85;;;3.00;;
82399;SDS011;72039;48.812;8.198;2023-12-20T04:56:43;6.95;;;3.33;;
82399;SDS011;72039;48.812;8.198;2023-12-20T04:59:08;4.35;;;3.22;;
82399;SDS011;72039;48.812;8.198;2023-12-20T05:01:34;7.55;;;3.00;;
82399;SDS011;72039;48.812;8.198;2023-12-20T05:03:59;4.22;;;3.00;;
82399;SDS011;72039;48.812;8.198;2023-12-20T05:06:24;5.88;;;3.50;;
82399;SDS011;72039;48.812;8.198;2023-12-20T05:08:50;6.63;;;3.92;;
82399;SDS011;72039;48.812;8.198;2023-12-20T05:11:15;4.47;;;3.10;;
82399;SDS011;72039;48.812;8.198;2023-12-20T05:13:47;5.35;;;3.08;;
82399;SDS011;72039;48.812;8.198;2023-12-20T05:16:12;3.60;;;2.85;;
82399;SDS011;72039;48.812;8.198;2023-12-20T05:18:39;7.75;;;3.88;;
82399;SDS011;72039;48.812;8.198;2023-12-20T05:21:05;7.15;;;3.83;;
82399;SDS011;72039;48.812;8.198;2023-12-20T05:23:30;5.03;;;3.50;;
82399;SDS011;72039;48.812;8.198;2023-12-20T05:25:55;4.68;;;3.15;;
82399;SDS011;72039;48.812;8.198;2023-12-20T05:28:21;5.15;;;2.92;;
82399;SDS011;72039;48.812;8.198;2023-12-20T05:30:46;4.63;;;3.28;;
82399;SDS011;72039;48.812;8.198;2023-12-20T05:33:11;4.03;;;2.78;;
82399;SDS011;72039;48.812;8.198;2023-12-20T05:35:37;6.55;;;3.10;;
82399;SDS011;72039;48.812;8.198;2023-12-20T05:38:02;5.55;;;3.65;;
82399;SDS011;72039;48.812;8.198;2023-12-20T05:40:27;5.10;;;3.58;;
82399;SDS011;72039;48.812;8.198;2023-12-20T05:43:02;6.18;;;3.70;;
82399;SDS011;72039;48.812;8.198;2023-12-20T05:45:28;4.60;;;3.20;;
82399;SDS011;72039;48.812;8.198;2023-12-20T05:47:55;5.65;;;3.65;;
82399;SDS011;72039;48.812;8.198;2023-12-20T05:50:21;4.43;;;3.35;;
82399;SDS011;72039;48.812;8.198;2023-12-20T05:52:49;5.30;;;3.38;;
82399;SDS011;72039;48.812;8.198;2023-12-20T05:55:19;6.70;;;3.30;;
82399;SDS011;72039;48.812;8.198;2023-12-20T05:57:44;7.72;;;4.40;;
82399;SDS011;72039;48.812;8.198;2023-12-20T06:00:12;5.50;;;3.67;;
82399;SDS011;72039;48.812;8.198;2023-12-20T06:02:40;5.63;;;4.18;;
82399;SDS011;72039;48.812;8.198;2023-12-20T06:05:06;4.75;;;3.53;;
82399;SDS011;72039;48.812;8.198;2023-12-20T06:07:31;5.03;;;3.60;;
82399;SDS011;72039;48.812;8.198;2023-12-20T06:09:57;4.55;;;3.50;;
82399;SDS011;72039;48.812;8.198;2023-12-20T06:12:22;5.60;;;4.03;;
82399;SDS011;72039;48.812;8.198;2023-12-20T06:14:47;5.03;;;3.70;;
82399;SDS011;72039;48.812;8.198;2023-12-20T06:17:15;7.80;;;4.15;;
82399;SDS011;72039;48.812;8.198;2023-12-20T06:19:40;6.45;;;3.95;;
82399;SDS011;72039;48.812;8.198;2023-12-20T06:22:07;4.93;;;3.58;;
82399;SDS011;72039;48.812;8.198;2023-12-20T06:24:35;7.80;;;4.03;;
82399;SDS011;72039;48.812;8.198;2023-12-20T06:27:01;4.40;;;3.50;;
82399;SDS011;72039;48.812;8.198;2023-12-20T06:29:26;5.22;;;3.72;;
82399;SDS011;72039;48.812;8.198;2023-12-20T06:31:52;5.05;;;3.65;;
82399;SDS011;72039;48.812;8.198;2023-12-20T06:34:22;7.20;;;4.55;;
82399;SDS011;72039;48.812;8.198;2023-12-20T06:36:48;8.30;;;4.68;;
82399;SDS011;72039;48.812;8.198;2023-12-20T06:39:17;6.38;;;3.95;;
82399;SDS011;72039;48.812;8.198;2023-12-20T06:41:43;7.00;;;4.10;;
82399;SDS011;72039;48.812;8.198;2023-12-20T06:44:08;8.75;;;4.72;;
82399;SDS011;72039;48.812;8.198;2023-12-20T06:46:36;8.57;;;5.05;;
82399;SDS011;72039;48.812;8.198;2023-12-20T06:49:01;8.20;;;4.68;;
82399;SDS011;72039;48.812;8.198;2023-12-20T06:51:27;8.35;;;5.07;;
82399;SDS011;72039;48.812;8.198;2023-12-20T06:53:55;11.75;;;5.18;;
82399;SDS011;72039;48.812;8.198;2023-12-20T06:56:21;8.32;;;5.15;;
82399;SDS011;72039;48.812;8.198;2023-12-20T06:58:51;7.40;;;5.25;;
82399;SDS011;72039;48.812;8.198;2023-12-20T07:01:16;7.00;;;4.22;;
82399;SDS011;72039;48.812;8.198;2023-12-20T07:03:44;8.70;;;4.80;;
82399;SDS011;72039;48.812;8.198;2023-12-20T07:06:11;8.52;;;5.03;;
82399;SDS011;72039;48.812;8.198;2023-12-20T07:08:43;12.88;;;4.65;;
82399;SDS011;72039;48.812;8.198;2023-12-20T07:11:08;7.38;;;4.60;;
82399;SDS011;72039;48.812;8.198;2023-12-20T07:13:36;7.32;;;4.47;;
82399;SDS011;72039;48.812;8.198;2023-12-20T07:16:01;6.55;;;4.22;;
82399;SDS011;72039;48.812;8.198;2023-12-20T07:18:26;5.63;;;4.30;;
82399;SDS011;72039;48.812;8.198;2023-12-20T07:20:52;7.15;;;4.82;;
82399;SDS011;72039;48.812;8.198;2023-12-20T07:23:17;7.97;;;5.07;;
82399;SDS011;72039;48.812;8.198;2023-12-20T07:25:44;7.93;;;5.50;;
82399;SDS011;72039;48.812;8.198;2023-12-20T07:28:10;7.57;;;5.43;;
82399;SDS011;72039;48.812;8.198;2023-12-20T07:30:35;11.63;;;5.43;;
82399;SDS011;72039;48.812;8.198;2023-12-20T07:33:00;9.15;;;6.07;;
82399;SDS011;72039;48.812;8.198;2023-12-20T07:35:27;8.57;;;5.65;;
82399;SDS011;72039;48.812;8.198;2023-12-20T07:37:52;9.32;;;6.32;;
82399;SDS011;72039;48.812;8.198;2023-12-20T07:40:22;11.55;;;6.35;;
82399;SDS011;72039;48.812;8.198;2023-12-20T07:42:48;9.65;;;5.25;;
82399;SDS011;72039;48.812;8.198;2023-12-20T07:45:14;10.20;;;5.68;;
82399;SDS011;72039;48.812;8.198;2023-12-20T07:47:42;10.55;;;5.85;;
82399;SDS011;72039;48.812;8.198;2023-12-20T07:50:10;7.55;;;4.90;;
82399;SDS011;72039;48.812;8.198;2023-12-20T07:52:35;8.45;;;5.50;;
82399;SDS011;72039;48.812;8.198;2023-12-20T07:55:00;8.18;;;5.03;;
82399;SDS011;72039;48.812;8.198;2023-12-20T07:57:28;6.72;;;5.05;;
82399;SDS011;72039;48.812;8.198;2023-12-20T07:59:56;7.13;;;5.57;;
82399;SDS011;72039;48.812;8.198;2023-12-20T08:02:28;5.70;;;4.23;;
82399;SDS011;72039;48.812;8.198;2023-12-20T08:04:54;8.25;;;4.70;;
82399;SDS011;72039;48.812;8.198;2023-12-20T08:07:19;9.15;;;5.60;;
82399;SDS011;72039;48.812;8.198;2023-12-20T08:09:44;12.45;;;5.72;;
82399;SDS011;72039;48.812;8.198;2023-12-20T08:12:09;8.63;;;5.07;;
82399;SDS011;72039;48.812;8.198;2023-12-20T08:14:36;10.27;;;6.10;;
82399;SDS011;72039;48.812;8.198;2023-12-20T08:17:01;8.45;;;5.30;;
82399;SDS011;72039;48.812;8.198;2023-12-20T08:19:26;7.65;;;5.63;;
82399;SDS011;72039;48.812;8.198;2023-12-20T08:21:51;7.57;;;5.00;;
82399;SDS011;72039;48.812;8.198;2023-12-20T08:24:17;9.35;;;5.10;;
82399;SDS011;72039;48.812;8.198;2023-12-20T08:26:42;9.45;;;5.70;;
82399;SDS011;72039;48.812;8.198;2023-12-20T08:29:07;7.13;;;5.32;;
82399;SDS011;72039;48.812;8.198;2023-12-20T08:31:33;6.30;;;4.70;;
82399;SDS011;72039;48.812;8.198;2023-12-20T08:33:59;8.07;;;4.97;;
82399;SDS011;72039;48.812;8.198;2023-12-20T08:36:24;10.85;;;5.38;;
82399;SDS011;72039;48.812;8.198;2023-12-20T08:38:50;9.57;;;5.47;;
82399;SDS011;72039;48.812;8.198;2023-12-20T08:41:18;7.97;;;5.13;;
82399;SDS011;72039;48.812;8.198;2023-12-20T08:43:45;8.02;;;5.95;;
82399;SDS011;72039;48.812;8.198;2023-12-20T08:46:13;7.88;;;5.57;;
82399;SDS011;72039;48.812;8.198;2023-12-20T08:48:39;9.95;;;4.95;;
82399;SDS011;72039;48.812;8.198;2023-12-20T08:51:09;6.90;;;4.82;;
82399;SDS011;72039;48.812;8.198;2023-12-20T08:53:35;6.03;;;4.40;;
82399;SDS011;72039;48.812;8.198;2023-12-20T08:56:00;8.18;;;5.03;;
82399;SDS011;72039;48.812;8.198;2023-12-20T08:58:27;7.55;;;4.40;;
82399;SDS011;72039;48.812;8.198;2023-12-20T09:00:52;5.90;;;3.63;;
82399;SDS011;72039;48.812;8.198;2023-12-20T09:03:18;8.35;;;3.85;;
82399;SDS011;72039;48.812;8.198;2023-12-20T09:05:43;5.30;;;3.60;;
82399;SDS011;72039;48.812;8.198;2023-12-20T09:08:08;6.40;;;4.10;;
82399;SDS011;72039;48.812;8.198;2023-12-20T09:10:35;9.77;;;4.15;;
82399;SDS011;72039;48.812;8.198;2023-12-20T09:13:01;8.93;;;4.20;;
82399;SDS011;72039;48.812;8.198;2023-12-20T09:15:29;6.30;;;3.13;;
82399;SDS011;72039;48.812;8.198;2023-12-20T09:17:55;9.15;;;3.40;;
82399;SDS011;72039;48.812;8.198;2023-12-20T09:20:20;7.53;;;3.50;;
82399;SDS011;72039;48.812;8.198;2023-12-20T09:22:46;9.70;;;5.43;;
82399;SDS011;72039;48.812;8.198;2023-12-20T09:25:11;9.38;;;4.13;;
82399;SDS011;72039;48.812;8.198;2023-12-20T09:27:38;6.88;;;3.30;;
82399;SDS011;72039;48.812;8.198;2023-12-20T09:30:04;6.07;;;3.30;;
82399;SDS011;72039;48.812;8.198;2023-12-20T09:32:30;4.50;;;2.92;;
82399;SDS011;72039;48.812;8.198;2023-12-20T09:34:56;8.07;;;3.00;;
82399;SDS011;72039;48.812;8.198;2023-12-20T09:37:21;10.10;;;2.80;;
82399;SDS011;72039;48.812;8.198;2023-12-20T09:39:46;12.05;;;3.28;;
82399;SDS011;72039;48.812;8.198;2023-12-20T10:08:43;4.85;;;3.03;;
82399;SDS011;72039;48.812;8.198;2023-12-20T10:11:08;6.55;;;3.05;;
82399;SDS011;72039;48.812;8.198;2023-12-20T10:13:34;5.30;;;3.17;;
82399;SDS011;72039;48.812;8.198;2023-12-20T10:16:05;8.55;;;3.35;;
82399;SDS011;72039;48.812;8.198;2023-12-20T10:18:31;10.65;;;2.95;;
82399;SDS011;72039;48.812;8.198;2023-12-20T10:20:56;11.07;;;2.70;;
82399;SDS011;72039;48.812;8.198;2023-12-20T10:23:21;8.93;;;2.90;;
82399;SDS011;72039;48.812;8.198;2023-12-20T10:25:57;12.73;;;4.03;;
82399;SDS011;72039;48.812;8.198;2023-12-20T10:28:23;9.70;;;3.65;;
82399;SDS011;72039;48.812;8.198;2023-12-20T10:30:52;5.72;;;3.03;;
82399;SDS011;72039;48.812;8.198;2023-12-20T10:33:28;8.30;;;2.53;;
82399;SDS011;72039;48.812;8.198;2023-12-20T10:35:59;5.00;;;2.70;;
82399;SDS011;72039;48.812;8.198;2023-12-20T10:38:27;6.43;;;3.08;;
82399;SDS011;72039;48.812;8.198;2023-12-20T10:40:56;6.82;;;3.40;;
82399;SDS011;72039;48.812;8.198;2023-12-20T10:43:30;6.65;;;3.75;;
82399;SDS011;72039;48.812;8.198;2023-12-20T10:45:57;10.55;;;4.60;;
82399;SDS011;72039;48.812;8.198;2023-12-20T10:48:26;7.85;;;2.67;;
82399;SDS011;72039;48.812;8.198;2023-12-20T10:50:55;6.30;;;2.95;;
82399;SDS011;72039;48.812;8.198;2023-12-20T10:53:26;7.35;;;3.00;;
82399;SDS011;72039;48.812;8.198;2023-12-20T10:55:55;5.13;;;2.70;;
82399;SDS011;72039;48.812;8.198;2023-12-20T10:58:22;6.32;;;2.80;;
82399;SDS011;72039;48.812;8.198;2023-12-20T11:00:49;8.85;;;3.22;;
82399;SDS011;72039;48.812;8.198;2023-12-20T11:03:22;6.82;;;3.25;;
82399;SDS011;72039;48.812;8.198;2023-12-20T11:05:58;9.30;;;2.90;;
82399;SDS011;72039;48.812;8.198;2023-12-20T11:08:33;6.82;;;2.90;;
82399;SDS011;72039;48.812;8.198;2023-12-20T11:11:06;10.32;;;3.97;;
82399;SDS011;72039;48.812;8.198;2023-12-20T11:14:41;8.27;;;3.20;;
82399;SDS011;72039;48.812;8.198;2023-12-20T11:16:41;10.43;;;3.88;;
82399;SDS011;72039;48.812;8.198;2023-12-20T11:19:07;7.00;;;3.63;;
82399;SDS011;72039;48.812;8.198;2023-12-20T11:21:34;7.25;;;3.67;;
82399;SDS011;72039;48.812;8.198;2023-12-20T11:24:02;7.93;;;3.83;;
82399;SDS011;72039;48.812;8.198;2023-12-20T11:26:30;10.65;;;3.08;;
82399;SDS011;72039;48.812;8.198;2023-12-20T11:32:02;5.75;;;2.80;;
82399;SDS011;72039;48.812;8.198;2023-12-20T11:34:29;7.53;;;2.80;;
82399;SDS011;72039;48.812;8.198;2023-12-20T11:36:57;7.03;;;2.55;;
82399;SDS011;72039;48.812;8.198;2023-12-20T11:39:27;7.68;;;2.50;;
82399;SDS011;72039;48.812;8.198;2023-12-20T11:41:56;7.10;;;3.33;;
82399;SDS011;72039;48.812;8.198;2023-12-20T11:44:22;5.85;;;2.50;;
82399;SDS011;72039;48.812;8.198;2023-12-20T11:46:48;4.80;;;2.30;;
82399;SDS011;72039;48.812;8.198;2023-12-20T11:49:15;6.82;;;2.10;;
82399;SDS011;72039;48.812;8.198;2023-12-20T11:51:43;6.47;;;2.10;;
82399;SDS011;72039;48.812;8.198;2023-12-20T11:54:24;7.60;;;1.92;;
82399;SDS011;72039;48.812;8.198;2023-12-20T11:56:59;6.72;;;2.63;;
82399;SDS011;72039;48.812;8.198;2023-12-20T11:59:24;4.78;;;2.03;;
82399;SDS011;72039;48.812;8.198;2023-12-20T12:01:50;4.95;;;2.67;;
82399;SDS011;72039;48.812;8.198;2023-12-20T12:04:16;13.07;;;3.85;;
82399;SDS011;72039;48.812;8.198;2023-12-20T12:06:45;4.53;;;2.70;;
82399;SDS011;72039;48.812;8.198;2023-12-20T12:09:11;6.53;;;2.80;;
82399;SDS011;72039;48.812;8.198;2023-12-20T12:11:40;10.65;;;2.08;;
82399;SDS011;72039;48.812;8.198;2023-12-20T12:14:10;9.07;;;2.80;;
82399;SDS011;72039;48.812;8.198;2023-12-20T12:16:35;8.48;;;2.50;;
82399;SDS011;72039;48.812;8.198;2023-12-20T12:19:01;4.20;;;2.28;;
82399;SDS011;72039;48.812;8.198;2023-12-20T12:21:26;4.25;;;2.65;;
82399;SDS011;72039;48.812;8.198;2023-12-20T12:23:54;7.45;;;2.72;;
82399;SDS011;72039;48.812;8.198;2023-12-20T12:26:24;5.72;;;2.50;;
82399;SDS011;72039;48.812;8.198;2023-12-20T12:28:57;8.73;;;2.40;;
82399;SDS011;72039;48.812;8.198;2023-12-20T12:31:26;6.43;;;2.58;;
82399;SDS011;72039;48.812;8.198;2023-12-20T12:33:56;11.00;;;2.33;;
82399;SDS011;72039;48.812;8.198;2023-12-20T12:36:21;16.55;;;3.83;;
82399;SDS011;72039;48.812;8.198;2023-12-20T12:38:50;11.65;;;2.20;;
82399;SDS011;72039;48.812;8.198;2023-12-20T12:41:15;10.40;;;2.30;;
82399;SDS011;72039;48.812;8.198;2023-12-20T12:43:43;4.38;;;2.03;;
82399;SDS011;72039;48.812;8.198;2023-12-20T12:46:08;6.38;;;2.03;;
82399;SDS011;72039;48.812;8.198;2023-12-20T12:48:33;5.40;;;2.20;;
82399;SDS011;72039;48.812;8.198;2023-12-20T12:50:59;8.32;;;2.05;;
82399;SDS011;72039;48.812;8.198;2023-12-20T12:53:26;8.98;;;2.35;;
82399;SDS011;72039;48.812;8.198;2023-12-20T12:55:52;7.88;;;1.80;;
82399;SDS011;72039;48.812;8.198;2023-12-20T12:58:19;6.28;;;2.35;;
82399;SDS011;72039;48.812;8.198;2023-12-20T13:00:44;5.40;;;1.70;;
82399;SDS011;72039;48.812;8.198;2023-12-20T13:03:10;7.25;;;3.08;;
82399;SDS011;72039;48.812;8.198;2023-12-20T13:05:35;7.47;;;2.03;;
82399;SDS011;72039;48.812;8.198;2023-12-20T13:08:00;7.70;;;1.90;;
82399;SDS011;72039;48.812;8.198;2023-12-20T13:10:25;6.13;;;2.30;;
82399;SDS011;72039;48.812;8.198;2023-12-20T13:12:56;7.05;;;2.50;;
82399;SDS011;72039;48.812;8.198;2023-12-20T13:15:23;7.25;;;2.33;;
82399;SDS011;72039;48.812;8.198;2023-12-20T13:17:49;10.93;;;2.78;;
82399;SDS011;72039;48.812;8.198;2023-12-20T13:20:16;4.78;;;2.10;;
82399;SDS011;72039;48.812;8.198;2023-12-20T13:22:41;7.03;;;2.33;;
82399;SDS011;72039;48.812;8.198;2023-12-20T13:25:09;9.10;;;2.05;;
82399;SDS011;72039;48.812;8.198;2023-12-20T13:27:34;6.75;;;2.28;;
82399;SDS011;72039;48.812;8.198;2023-12-20T13:30:00;8.25;;;2.85;;
82399;SDS011;72039;48.812;8.198;2023-12-20T13:32:26;6.47;;;2.53;;
82399;SDS011;72039;48.812;8.198;2023-12-20T13:34:53;4.47;;;2.00;;
82399;SDS011;72039;48.812;8.198;2023-12-20T13:37:18;7.18;;;2.60;;
82399;SDS011;72039;48.812;8.198;2023-12-20T13:39:48;7.30;;;2.60;;
82399;SDS011;72039;48.812;8.198;2023-12-20T13:42:18;8.40;;;3.03;;
82399;SDS011;72039;48.812;8.198;2023-12-20T13:44:45;6.47;;;2.35;;
82399;SDS011;72039;48.812;8.198;2023-12-20T13:47:13;4.80;;;2.25;;
82399;SDS011;72039;48.812;8.198;2023-12-20T13:49:40;11.90;;;2.97;;
82399;SDS011;72039;48.812;8.198;2023-12-20T13:52:11;2.97;;;2.13;;
82399;SDS011;72039;48.812;8.198;2023-12-20T13:54:49;5.63;;;2.65;;
82399;SDS011;72039;48.812;8.198;2023-12-20T13:57:19;4.82;;;2.00;;
82399;SDS011;72039;48.812;8.198;2023-12-20T13:59:44;6.97;;;2.22;;
82399;SDS011;72039;48.812;8.198;2023-12-20T14:02:12;8.15;;;2.03;;
82399;SDS011;72039;48.812;8.198;2023-12-20T14:04:38;11.07;;;2.20;;
82399;SDS011;72039;48.812;8.198;2023-12-20T14:07:05;9.80;;;2.25;;
82399;SDS011;72039;48.812;8.198;2023-12-20T14:09:34;6.03;;;2.22;;
82399;SDS011;72039;48.812;8.198;2023-12-20T14:11:59;7.88;;;1.80;;
82399;SDS011;72039;48.812;8.198;2023-12-20T14:14:27;7.85;;;2.75;;
82399;SDS011;72039;48.812;8.198;2023-12-20T14:16:53;8.25;;;2.10;;
82399;SDS011;72039;48.812;8.198;2023-12-20T14:19:18;6.35;;;1.83;;
82399;SDS011;72039;48.812;8.198;2023-12-20T14:21:46;8.10;;;2.25;;
82399;SDS011;72039;48.812;8.198;2023-12-20T14:24:14;9.93;;;2.00;;
82399;SDS011;72039;48.812;8.198;2023-12-20T14:26:40;5.88;;;2.13;;
82399;SDS011;72039;48.812;8.198;2023-12-20T14:29:13;7.53;;;2.33;;
82399;SDS011;72039;48.812;8.198;2023-12-20T14:31:38;6.55;;;2.25;;
82399;SDS011;72039;48.812;8.198;2023-12-20T14:34:05;6.38;;;2.08;;
82399;SDS011;72039;48.812;8.198;2023-12-20T14:36:34;8.38;;;2.60;;
82399;SDS011;72039;48.812;8.198;2023-12-20T14:39:02;6.78;;;2.65;;
82399;SDS011;72039;48.812;8.198;2023-12-20T14:41:33;6.15;;;2.53;;
82399;SDS011;72039;48.812;8.198;2023-12-20T14:43:59;7.20;;;2.95;;
82399;SDS011;72039;48.812;8.198;2023-12-20T14:46:29;9.05;;;3.08;;
82399;SDS011;72039;48.812;8.198;2023-12-20T14:48:59;8.32;;;2.55;;
82399;SDS011;72039;48.812;8.198;2023-12-20T14:51:29;4.55;;;2.67;;
82399;SDS011;72039;48.812;8.198;2023-12-20T14:53:55;9.13;;;3.30;;
82399;SDS011;72039;48.812;8.198;2023-12-20T14:56:23;9.73;;;3.33;;
82399;SDS011;72039;48.812;8.198;2023-12-20T14:58:53;9.95;;;3.97;;
82399;SDS011;72039;48.812;8.198;2023-12-20T15:01:18;6.68;;;3.33;;
82399;SDS011;72039;48.812;8.198;2023-12-20T15:03:47;10.05;;;3.83;;
82399;SDS011;72039;48.812;8.198;2023-12-20T15:06:13;6.07;;;3.15;;
82399;SDS011;72039;48.812;8.198;2023-12-20T15:08:41;8.52;;;3.58;;
82399;SDS011;72039;48.812;8.198;2023-12-20T15:11:09;10.27;;;3.08;;
82399;SDS011;72039;48.812;8.198;2023-12-20T15:13:38;10.38;;;3.10;;